createdAt,value
2023-04-16T00:02:17.892Z,36.80
2023-04-16T00:04:46.103Z,34.83
2023-04-16T00:07:14.077Z,39.35
2023-04-16T00:09:42.055Z,40.50
2023-04-16T00:12:10.053Z,57.92
2023-04-16T00:14:38.016Z,38.17
2023-04-16T00:17:07.375Z,40.70
2023-04-16T00:19:35.400Z,39.75
2023-04-16T00:22:03.562Z,56.53
2023-04-16T00:24:31.516Z,33.85
2023-04-16T00:26:59.453Z,45.95
2023-04-16T00:29:28.771Z,41.20
2023-04-16T00:31:56.846Z,43.88
2023-04-16T00:34:26.275Z,47.00
2023-04-16T00:36:54.254Z,38.80
2023-04-16T00:39:22.279Z,35.35
2023-04-16T00:41:50.670Z,38.25
2023-04-16T00:44:18.808Z,39.55
2023-04-16T00:46:47.325Z,43.92
2023-04-16T00:49:16.146Z,46.33
2023-04-16T00:51:45.663Z,43.05
2023-04-16T00:54:13.782Z,49.10
2023-04-16T00:56:41.885Z,43.95
2023-04-16T00:59:10.506Z,45.67
2023-04-16T01:01:38.854Z,43.38
2023-04-16T01:04:07.548Z,47.97
2023-04-16T01:06:35.665Z,35.92
2023-04-16T01:09:05.047Z,42.47
2023-04-16T01:11:33.013Z,34.13
2023-04-16T01:14:01.012Z,39.83
2023-04-16T01:16:29.035Z,32.05
2023-04-16T01:18:56.972Z,30.17
2023-04-16T01:21:26.576Z,36.88
2023-04-16T01:23:54.586Z,36.40
2023-04-16T01:26:22.709Z,32.03
2023-04-16T01:28:51.138Z,38.35
2023-04-16T01:31:19.176Z,28.90
2023-04-16T01:33:47.216Z,38.28
2023-04-16T01:36:15.484Z,35.28
2023-04-16T01:38:44.985Z,31.70
2023-04-16T01:41:12.973Z,37.80
2023-04-16T01:43:42.542Z,28.75
2023-04-16T01:46:16.408Z,34.97
2023-04-16T01:48:44.575Z,29.58
2023-04-16T01:51:12.672Z,37.17
2023-04-16T01:53:40.677Z,33.78
2023-04-16T01:56:10.247Z,41.15
2023-04-16T01:58:38.624Z,38.25
2023-04-16T02:01:06.969Z,36.75
2023-04-16T02:03:35.271Z,35.22
2023-04-16T02:06:03.387Z,43.35
2023-04-16T02:08:31.521Z,27.30
2023-04-16T02:10:59.660Z,30.90
2023-04-16T02:13:28.964Z,28.27
2023-04-16T02:15:58.711Z,38.85
2023-04-16T02:18:27.799Z,37.63
2023-04-16T02:21:01.246Z,33.05
2023-04-16T02:23:30.661Z,27.15
2023-04-16T02:26:01.796Z,25.20
2023-04-16T02:28:33.046Z,35.08
2023-04-16T02:31:03.794Z,32.60
2023-04-16T02:33:34.636Z,33.78
2023-04-16T02:36:07.381Z,35.15
2023-04-16T02:38:38.085Z,29.92
2023-04-16T02:41:07.411Z,35.05
2023-04-16T02:43:39.538Z,41.20
2023-04-16T02:46:11.500Z,39.50
2023-04-16T02:48:41.702Z,31.40
2023-04-16T02:51:11.554Z,45.17
2023-04-16T02:53:40.878Z,31.02
2023-04-16T02:56:11.089Z,41.78
2023-04-16T02:58:41.480Z,31.50
2023-04-16T03:01:10.620Z,41.88
2023-04-16T03:03:40.916Z,33.00
2023-04-16T03:06:10.832Z,36.50
2023-04-16T03:08:42.016Z,40.25
2023-04-16T03:11:13.423Z,41.28
2023-04-16T03:13:45.286Z,30.92
2023-04-16T03:16:14.228Z,38.67
2023-04-16T03:18:46.866Z,35.22
2023-04-16T03:21:17.042Z,40.35
2023-04-16T03:23:48.617Z,34.25
2023-04-16T03:26:18.366Z,41.65
2023-04-16T03:28:50.649Z,36.13
2023-04-16T03:31:21.191Z,34.33
2023-04-16T03:33:51.254Z,30.58
2023-04-16T03:36:23.770Z,44.95
2023-04-16T03:38:58.561Z,39.78
2023-04-16T03:41:29.159Z,39.10
2023-04-16T03:44:01.281Z,39.85
2023-04-16T03:46:31.618Z,37.78
2023-04-16T03:49:04.042Z,34.28
2023-04-16T03:51:35.049Z,43.70
2023-04-16T03:54:04.981Z,33.58
2023-04-16T03:56:35.437Z,36.53
2023-04-16T03:59:06.781Z,43.28
2023-04-16T04:01:37.124Z,43.50
2023-04-16T04:04:07.316Z,37.85
2023-04-16T04:06:37.044Z,44.42
2023-04-16T04:09:07.869Z,46.38
2023-04-16T04:11:37.806Z,43.50
2023-04-16T04:14:09.302Z,36.88
2023-04-16T04:16:39.887Z,44.75
2023-04-16T04:19:09.490Z,34.83
2023-04-16T04:21:39.042Z,42.67
2023-04-16T04:24:08.709Z,39.40
2023-04-16T04:26:39.048Z,40.40
2023-04-16T04:29:10.573Z,41.90
2023-04-16T04:31:40.138Z,35.47
2023-04-16T04:34:09.855Z,37.40
2023-04-16T04:36:39.261Z,37.72
2023-04-16T04:39:07.932Z,43.58
2023-04-16T04:41:36.366Z,37.97
2023-04-16T04:44:06.550Z,43.63
2023-04-16T04:46:36.160Z,37.35
2023-04-16T04:49:04.091Z,35.95
2023-04-16T04:51:32.137Z,41.80
2023-04-16T04:54:00.194Z,44.10
2023-04-16T04:56:28.267Z,48.63
2023-04-16T04:58:56.370Z,48.55
2023-04-16T05:01:24.525Z,44.83
2023-04-16T05:03:54.199Z,42.13
2023-04-16T05:06:22.251Z,45.17
2023-04-16T05:08:50.264Z,44.83
2023-04-16T05:11:18.256Z,41.58
2023-04-16T05:13:46.226Z,44.95
2023-04-16T05:16:15.350Z,42.10
2023-04-16T05:18:43.325Z,42.47
2023-04-16T05:21:12.723Z,44.70
2023-04-16T05:23:40.718Z,38.15
2023-04-16T05:26:08.716Z,51.80
2023-04-16T05:28:38.869Z,42.80
2023-04-16T05:31:10.855Z,41.25
2023-04-16T05:33:40.520Z,41.28
2023-04-16T05:36:09.785Z,48.50
2023-04-16T05:38:42.063Z,45.28
2023-04-16T05:41:12.025Z,51.28
2023-04-16T05:43:42.823Z,45.50
2023-04-16T05:46:12.829Z,50.78
2023-04-16T05:48:42.744Z,53.33
2023-04-16T05:51:14.359Z,58.00
2023-04-16T05:53:46.058Z,58.65
2023-04-16T05:56:15.868Z,55.35
2023-04-16T05:58:45.805Z,85.63
2023-04-16T06:01:14.911Z,54.05
2023-04-16T06:03:42.993Z,51.00
2023-04-16T06:06:11.210Z,54.38
2023-04-16T06:08:39.273Z,57.63
2023-04-16T06:11:11.595Z,55.90
2023-04-16T06:13:41.825Z,63.70
2023-04-16T06:16:11.813Z,63.15
2023-04-16T06:18:42.233Z,60.45
2023-04-16T06:21:10.989Z,54.67
2023-04-16T06:23:43.586Z,49.40
2023-04-16T06:26:15.273Z,57.38
2023-04-16T06:28:46.057Z,54.67
2023-04-16T06:31:16.498Z,59.40
2023-04-16T06:33:47.944Z,63.05
2023-04-16T06:36:18.715Z,59.20
2023-04-16T06:38:49.673Z,60.55
2023-04-16T06:41:24.034Z,58.88
2023-04-16T06:43:55.484Z,64.28
2023-04-16T06:46:26.631Z,66.53
2023-04-16T06:48:57.321Z,67.22
2023-04-16T06:51:29.866Z,61.83
2023-04-16T06:54:01.212Z,63.40
2023-04-16T06:56:33.182Z,68.18
2023-04-16T06:59:03.754Z,56.45
2023-04-16T07:01:33.461Z,68.07
2023-04-16T07:04:03.053Z,72.75
2023-04-16T07:06:32.830Z,77.47
2023-04-16T07:09:03.059Z,68.78
2023-04-16T07:11:35.351Z,73.00
2023-04-16T07:14:04.895Z,55.90
2023-04-16T07:16:32.939Z,67.22
2023-04-16T07:19:00.982Z,73.13
2023-04-16T07:21:28.962Z,69.10
2023-04-16T07:23:56.972Z,66.03
2023-04-16T07:26:24.956Z,71.57
2023-04-16T07:28:54.370Z,70.90
2023-04-16T07:31:22.563Z,80.45
2023-04-16T07:33:50.692Z,65.03
2023-04-16T07:36:18.689Z,56.05
2023-04-16T07:38:46.645Z,70.90
2023-04-16T07:41:20.554Z,60.53
2023-04-16T07:43:52.101Z,76.45
2023-04-16T07:46:30.483Z,65.07
2023-04-16T07:49:04.570Z,68.18
2023-04-16T07:51:32.633Z,67.75
2023-04-16T07:54:00.700Z,69.30
2023-04-16T07:56:29.056Z,71.90
2023-04-16T07:59:01.051Z,70.78
2023-04-16T08:01:34.903Z,81.30
2023-04-16T08:04:03.153Z,73.10
2023-04-16T08:06:31.928Z,70.03
2023-04-16T08:09:02.634Z,64.60
2023-04-16T08:11:30.791Z,70.78
2023-04-16T08:13:58.818Z,57.35
2023-04-16T08:16:26.915Z,68.68
2023-04-16T08:18:56.412Z,74.57
2023-04-16T08:21:24.799Z,71.82
2023-04-16T08:23:52.873Z,55.75
2023-04-16T08:26:21.070Z,55.92
2023-04-16T08:28:49.163Z,55.50
2023-04-16T08:31:17.597Z,52.60
2023-04-16T08:33:45.725Z,62.20
2023-04-16T08:36:15.516Z,63.20
2023-04-16T08:38:43.439Z,51.58
2023-04-16T08:41:15.100Z,51.85
2023-04-16T08:43:46.288Z,49.60
2023-04-16T08:46:14.555Z,57.38
2023-04-16T08:48:44.326Z,59.60
2023-04-16T08:51:17.076Z,46.90
2023-04-16T08:53:50.404Z,51.70
2023-04-16T08:56:22.457Z,41.88
2023-04-16T08:58:52.543Z,54.60
2023-04-16T09:01:24.217Z,52.80
2023-04-16T09:03:53.043Z,52.13
2023-04-16T09:06:22.939Z,58.47
2023-04-16T09:08:52.012Z,67.10
2023-04-16T09:11:20.206Z,64.85
2023-04-16T09:13:50.415Z,65.70
2023-04-16T09:16:19.004Z,50.00
2023-04-16T09:18:48.008Z,50.72
2023-04-16T09:21:16.792Z,53.65
2023-04-16T09:23:47.218Z,51.20
2023-04-16T09:26:17.664Z,49.67
2023-04-16T09:28:47.473Z,46.30
2023-04-16T09:31:17.293Z,49.35
2023-04-16T09:34:01.618Z,46.97
2023-04-16T09:36:30.035Z,47.22
2023-04-16T09:39:00.520Z,45.25
2023-04-16T09:41:30.276Z,55.97
2023-04-16T09:44:00.626Z,44.08
2023-04-16T09:46:32.673Z,54.17
2023-04-16T09:49:06.651Z,51.53
2023-04-16T09:51:39.056Z,54.97
2023-04-16T09:54:08.844Z,57.33
2023-04-16T09:56:42.041Z,68.45
2023-04-16T09:59:11.000Z,52.70
2023-04-16T10:01:39.702Z,56.85
2023-04-16T10:04:08.254Z,57.88
2023-04-16T10:06:36.380Z,65.55
2023-04-16T10:09:11.161Z,54.15
2023-04-16T10:11:40.728Z,58.88
2023-04-16T10:14:10.674Z,53.88
2023-04-16T10:16:41.245Z,58.60
2023-04-16T10:19:10.158Z,47.35
2023-04-16T10:21:38.638Z,60.58
2023-04-16T10:24:08.333Z,47.13
2023-04-16T10:26:38.075Z,51.65
2023-04-16T10:29:08.026Z,52.10
2023-04-16T10:31:37.002Z,48.90
2023-04-16T10:34:08.039Z,49.08
2023-04-16T10:36:41.512Z,56.22
2023-04-16T10:39:16.299Z,49.17
2023-04-16T10:41:46.870Z,52.00
2023-04-16T10:44:15.011Z,45.95
2023-04-16T10:46:44.094Z,54.67
2023-04-16T10:49:16.366Z,48.67
2023-04-16T10:51:56.383Z,57.65
2023-04-16T10:54:27.000Z,56.47
2023-04-16T10:56:58.750Z,62.33
2023-04-16T10:59:32.607Z,42.80
2023-04-16T11:02:02.531Z,46.97
2023-04-16T11:04:35.043Z,48.72
2023-04-16T11:07:05.584Z,51.95
2023-04-16T11:09:51.417Z,63.13
2023-04-16T11:12:22.473Z,51.97
2023-04-16T11:14:51.947Z,61.50
2023-04-16T11:17:22.889Z,52.78
2023-04-16T11:19:53.561Z,35.67
2023-04-16T11:22:21.992Z,44.00
2023-04-16T11:24:55.847Z,51.15
2023-04-16T11:27:26.530Z,46.75
2023-04-16T11:30:02.233Z,45.22
2023-04-16T11:32:33.044Z,59.50
2023-04-16T11:35:03.737Z,53.45
2023-04-16T11:37:35.780Z,58.15
2023-04-16T11:40:06.977Z,42.90
2023-04-16T11:42:38.273Z,49.03
2023-04-16T11:45:07.686Z,54.40
2023-04-16T11:47:45.253Z,49.42
2023-04-16T11:50:21.206Z,53.63
2023-04-16T11:52:50.569Z,50.03
2023-04-16T11:58:34.150Z,42.17
2023-04-16T12:01:52.340Z,38.63
2023-04-16T12:04:22.406Z,50.22
2023-04-16T12:07:12.710Z,49.55
2023-04-16T12:09:42.175Z,68.20
2023-04-16T12:12:30.876Z,55.28
2023-04-16T12:15:03.717Z,43.28
2023-04-16T12:17:33.307Z,47.83
2023-04-16T12:20:02.777Z,45.45
2023-04-16T12:22:34.671Z,48.05
2023-04-16T12:25:06.182Z,42.42
2023-04-16T12:27:50.701Z,39.80
2023-04-16T12:30:24.539Z,40.20
2023-04-16T12:33:13.508Z,45.97
2023-04-16T12:35:43.597Z,49.50
2023-04-16T12:38:12.165Z,57.38
2023-04-16T12:40:43.589Z,42.50
2023-04-16T12:43:12.082Z,42.25
2023-04-16T12:45:41.915Z,110.70
2023-04-16T12:48:10.325Z,43.53
2023-04-16T12:50:39.751Z,33.85
2023-04-16T12:53:07.807Z,34.70
2023-04-16T12:55:35.838Z,31.25
2023-04-16T12:58:03.947Z,37.40
2023-04-16T13:00:33.318Z,26.40
2023-04-16T13:03:02.977Z,38.88
2023-04-16T13:05:31.292Z,36.75
2023-04-16T13:07:59.381Z,25.30
2023-04-16T13:10:27.993Z,38.83
2023-04-16T13:12:57.523Z,38.03
2023-04-16T13:15:25.572Z,33.55
2023-04-16T13:17:53.618Z,33.85
2023-04-16T13:20:24.536Z,26.80
2023-04-16T13:22:52.793Z,33.28
2023-04-16T13:25:20.948Z,37.60
2023-04-16T13:27:49.070Z,28.38
2023-04-16T13:30:17.475Z,38.45
2023-04-16T13:32:45.610Z,33.83
2023-04-16T13:35:13.781Z,35.45
2023-04-16T13:37:45.751Z,30.15
2023-04-16T13:40:15.320Z,46.67
2023-04-16T13:42:43.889Z,56.10
2023-04-16T13:45:12.312Z,38.13
2023-04-16T13:47:42.611Z,46.88
2023-04-16T13:50:12.073Z,35.63
2023-04-16T13:52:40.062Z,37.53
2023-04-16T13:55:11.009Z,44.83
2023-04-16T13:57:39.054Z,35.08
2023-04-16T14:00:13.092Z,35.70
2023-04-16T14:02:42.601Z,46.67
2023-04-16T14:05:10.860Z,51.60
2023-04-16T14:07:39.408Z,40.08
2023-04-16T14:10:10.184Z,47.08
2023-04-16T14:12:40.744Z,41.95
2023-04-16T14:15:10.486Z,43.33
2023-04-16T14:17:38.715Z,41.88
2023-04-16T14:20:07.779Z,43.58
2023-04-16T14:22:35.833Z,38.60
2023-04-16T14:25:03.909Z,48.30
2023-04-16T14:27:34.188Z,58.50
2023-04-16T14:30:02.629Z,49.45
2023-04-16T14:32:30.805Z,45.25
2023-04-16T14:34:59.084Z,35.25
2023-04-16T14:37:27.759Z,41.03
2023-04-16T14:39:56.480Z,36.60
2023-04-16T14:42:24.731Z,41.10
2023-04-16T14:44:54.331Z,37.30
2023-04-16T14:47:23.073Z,43.10
2023-04-16T14:49:51.892Z,40.15
2023-04-16T14:52:20.063Z,41.28
2023-04-16T14:54:49.060Z,47.25
2023-04-16T14:57:17.863Z,45.00
2023-04-16T14:59:48.464Z,54.30
2023-04-16T15:02:18.501Z,47.70
2023-04-16T15:04:47.651Z,49.30
2023-04-16T15:07:16.990Z,38.42
2023-04-16T15:09:45.129Z,43.08
2023-04-16T15:12:13.796Z,42.25
2023-04-16T15:14:43.278Z,46.28
2023-04-16T15:17:11.609Z,46.25
2023-04-16T15:19:42.676Z,47.00
2023-04-16T15:22:10.860Z,56.67
2023-04-16T15:24:39.953Z,42.53
2023-04-16T15:27:11.182Z,56.55
2023-04-16T15:29:39.973Z,62.03
2023-04-16T15:32:08.200Z,52.40
2023-04-16T15:34:36.791Z,47.47
2023-04-16T15:37:06.276Z,55.72
2023-04-16T15:39:34.473Z,47.72
2023-04-16T15:42:04.560Z,52.78
2023-04-16T15:44:34.335Z,52.63
2023-04-16T15:47:03.357Z,57.42
2023-04-16T15:49:31.516Z,56.15
2023-04-16T15:52:00.271Z,64.07
2023-04-16T15:54:30.598Z,52.85
2023-04-16T15:56:58.855Z,62.00
2023-04-16T15:59:27.526Z,54.33
2023-04-16T16:01:55.983Z,65.50
2023-04-16T16:04:26.530Z,51.10
2023-04-16T16:06:56.188Z,53.03
2023-04-16T16:09:27.025Z,55.00
2023-04-16T16:11:59.962Z,60.03
2023-04-16T16:14:28.133Z,52.80
2023-04-16T16:16:56.425Z,60.45
2023-04-16T16:19:24.491Z,52.85
2023-04-16T16:21:52.636Z,65.07
2023-04-16T16:24:20.841Z,57.72
2023-04-16T16:26:49.012Z,66.13
2023-04-16T16:29:18.510Z,62.30
2023-04-16T16:31:46.753Z,71.85
2023-04-16T16:34:20.496Z,62.95
2023-04-16T16:36:49.731Z,56.97
2023-04-16T16:39:17.890Z,66.82
2023-04-16T16:41:45.928Z,64.03
2023-04-16T16:44:14.077Z,75.65
2023-04-16T16:46:43.656Z,86.38
2023-04-16T16:49:12.046Z,77.80
2023-04-16T16:51:40.410Z,95.55
2023-04-16T16:54:09.057Z,76.18
2023-04-16T16:56:37.063Z,56.80
2023-04-16T16:59:05.162Z,71.40
2023-04-16T17:01:33.658Z,73.13
2023-04-16T17:04:05.569Z,68.35
2023-04-16T17:06:33.909Z,57.20
2023-04-16T17:09:01.939Z,62.80
2023-04-16T17:11:29.975Z,61.47
2023-04-16T17:13:58.067Z,69.70
2023-04-16T17:16:26.416Z,71.18
2023-04-16T17:18:54.442Z,70.00
2023-04-16T17:21:23.913Z,55.58
2023-04-16T17:23:52.272Z,56.30
2023-04-16T17:26:20.524Z,54.97
2023-04-16T17:28:49.780Z,49.65
2023-04-16T17:31:18.422Z,57.47
2023-04-16T17:33:46.798Z,54.25
2023-04-16T17:36:14.800Z,57.95
2023-04-16T17:38:44.902Z,53.28
2023-04-16T17:41:13.074Z,47.60
2023-04-16T17:43:41.384Z,54.55
2023-04-16T17:46:12.092Z,55.97
2023-04-16T17:48:40.099Z,52.60
2023-04-16T17:51:12.067Z,54.33
2023-04-16T17:53:42.652Z,49.28
2023-04-16T17:56:12.158Z,62.10
2023-04-16T17:58:40.244Z,57.05
2023-04-16T18:01:08.242Z,60.95
2023-04-16T18:03:37.267Z,62.08
2023-04-16T18:06:07.880Z,61.03
2023-04-16T18:08:37.695Z,57.30
2023-04-16T18:11:08.333Z,58.20
2023-04-16T18:13:38.968Z,49.95
2023-04-16T18:16:14.719Z,63.60
2023-04-16T18:18:42.688Z,49.30
2023-04-16T18:21:10.690Z,62.95
2023-04-16T18:23:38.948Z,59.35
2023-04-16T18:26:08.450Z,61.55
2023-04-16T18:28:39.010Z,51.25
2023-04-16T18:31:10.101Z,62.42
2023-04-16T18:33:55.550Z,55.90
2023-04-16T18:36:26.160Z,47.80
2023-04-16T18:41:27.738Z,52.88
2023-04-16T18:43:57.101Z,65.50
2023-04-16T18:46:25.383Z,60.15
2023-04-16T18:48:54.772Z,59.28
2023-04-16T18:51:22.809Z,59.30
2023-04-16T18:53:50.799Z,57.53
2023-04-16T18:56:19.052Z,55.80
2023-04-16T18:58:47.798Z,62.63
2023-04-16T19:01:18.010Z,62.65
2023-04-16T19:03:46.523Z,53.42
2023-04-16T19:06:14.519Z,68.90
2023-04-16T19:08:43.055Z,57.38
2023-04-16T19:11:12.081Z,63.72
2023-04-16T19:13:41.306Z,52.05
2023-04-16T19:16:11.653Z,56.28
2023-04-16T19:18:41.233Z,55.45
2023-04-16T19:21:10.870Z,58.40
2023-04-16T19:23:38.980Z,44.15
2023-04-16T19:26:07.045Z,59.78
2023-04-16T19:28:35.018Z,51.30
2023-04-16T19:31:03.242Z,55.85
2023-04-16T19:33:33.685Z,43.38
2023-04-16T19:36:03.111Z,55.08
2023-04-16T19:38:32.596Z,50.20
2023-04-16T19:41:00.731Z,49.88
2023-04-16T19:43:31.197Z,48.70
2023-04-16T19:46:02.313Z,48.70
2023-04-16T19:48:30.483Z,50.63
2023-04-16T19:51:02.196Z,46.22
2023-04-16T19:53:31.621Z,50.85
2023-04-16T19:56:02.181Z,51.63
2023-04-16T19:58:30.919Z,49.75
2023-04-16T20:00:58.970Z,52.47
2023-04-16T20:03:27.170Z,50.58
2023-04-16T20:05:57.779Z,49.00
2023-04-16T20:08:30.680Z,46.60
2023-04-16T20:11:00.370Z,46.40
2023-04-16T20:13:28.299Z,46.85
2023-04-16T20:15:56.447Z,41.80
2023-04-16T20:18:27.006Z,37.13
2023-04-16T20:20:57.447Z,38.45
2023-04-16T20:23:25.492Z,41.10
2023-04-16T20:25:54.892Z,39.65
2023-04-16T20:28:26.869Z,34.97
2023-04-16T20:30:55.148Z,37.42
2023-04-16T20:33:23.145Z,40.35
2023-04-16T20:35:52.313Z,43.22
2023-04-16T20:38:23.775Z,45.28
2023-04-16T20:40:58.215Z,35.20
2023-04-16T20:43:29.809Z,42.00
2023-04-16T20:45:57.993Z,33.10
2023-04-16T20:48:26.155Z,36.80
2023-04-16T20:50:59.587Z,39.28
2023-04-16T20:53:27.886Z,41.33
2023-04-16T20:55:55.979Z,37.85
2023-04-16T20:58:24.024Z,39.92
2023-04-16T21:00:54.195Z,49.78
2023-04-16T21:03:22.848Z,47.67
2023-04-16T21:05:51.459Z,38.03
2023-04-16T21:08:21.249Z,39.53
2023-04-16T21:10:49.780Z,36.22
2023-04-16T21:13:18.678Z,45.58
2023-04-16T21:15:46.737Z,29.77
2023-04-16T21:18:17.064Z,40.78
2023-04-16T21:20:45.645Z,32.80
2023-04-16T21:23:13.779Z,44.28
2023-04-16T21:25:41.800Z,36.35
2023-04-16T21:28:09.797Z,40.10
2023-04-16T21:30:38.290Z,37.05
2023-04-16T21:33:06.703Z,32.65
2023-04-16T21:35:36.492Z,35.08
2023-04-16T21:38:04.422Z,32.30
2023-04-16T21:40:32.394Z,28.38
2023-04-16T21:43:00.380Z,34.25
2023-04-16T21:45:30.068Z,32.78
2023-04-16T21:47:58.664Z,30.52
2023-04-16T21:50:26.743Z,29.98
2023-04-16T21:52:56.092Z,30.45
2023-04-16T21:55:24.544Z,40.00
2023-04-16T21:57:52.490Z,30.73
2023-04-16T22:00:21.277Z,39.20
2023-04-16T22:02:49.478Z,31.83
2023-04-16T22:05:17.780Z,38.63
2023-04-16T22:07:45.764Z,26.40
2023-04-16T22:10:15.424Z,36.83
2023-04-16T22:12:44.908Z,26.00
2023-04-16T22:15:14.162Z,30.33
2023-04-16T22:17:42.390Z,28.95
2023-04-16T22:20:12.898Z,31.42
2023-04-16T22:22:41.181Z,33.30
2023-04-16T22:25:10.109Z,31.25
2023-04-16T22:27:39.644Z,30.52
2023-04-16T22:30:09.286Z,29.23
2023-04-16T22:32:37.293Z,27.33
2023-04-16T22:35:05.766Z,29.60
2023-04-16T22:37:33.945Z,31.25
2023-04-16T22:40:02.060Z,23.90
2023-04-16T22:42:30.096Z,28.33
2023-04-16T22:44:59.867Z,29.20
2023-04-16T22:47:28.188Z,35.72
2023-04-16T22:49:56.155Z,30.00
2023-04-16T22:52:24.144Z,43.00
2023-04-16T22:54:52.043Z,26.88
2023-04-16T22:57:22.850Z,31.98
2023-04-16T22:59:50.905Z,28.58
2023-04-16T23:02:20.723Z,38.80
2023-04-16T23:04:48.826Z,31.52
2023-04-16T23:07:17.040Z,31.48
2023-04-16T23:09:45.057Z,27.00
2023-04-16T23:12:13.070Z,28.35
2023-04-16T23:14:46.079Z,33.72
2023-04-16T23:17:14.393Z,31.88
2023-04-16T23:19:43.992Z,30.27
2023-04-16T23:22:15.122Z,25.08
2023-04-16T23:24:46.168Z,29.77
2023-04-16T23:27:15.100Z,31.13
2023-04-16T23:29:43.102Z,31.70
2023-04-16T23:32:11.177Z,33.10
2023-04-16T23:34:39.134Z,33.08
2023-04-16T23:37:08.539Z,34.35
2023-04-16T23:39:36.846Z,30.65
2023-04-16T23:42:05.006Z,24.52
2023-04-16T23:44:33.137Z,25.73
2023-04-16T23:47:01.278Z,28.77
2023-04-16T23:49:30.035Z,34.28
2023-04-16T23:51:58.017Z,30.15
2023-04-16T23:54:27.558Z,34.50
2023-04-16T23:56:57.099Z,25.58
2023-04-16T23:59:25.259Z,28.92
